createdAt,value
2023-05-08T00:02:16.746Z,13.02
2023-05-08T00:04:43.186Z,15.82
2023-05-08T00:07:09.579Z,12.10
2023-05-08T00:09:35.930Z,14.15
2023-05-08T00:12:02.289Z,13.27
2023-05-08T00:14:28.619Z,13.93
2023-05-08T00:16:55.102Z,15.05
2023-05-08T00:19:21.532Z,12.37
2023-05-08T00:21:47.941Z,13.57
2023-05-08T00:24:14.352Z,17.02
2023-05-08T00:26:41.928Z,12.88
2023-05-08T00:29:08.355Z,15.15
2023-05-08T00:31:34.832Z,14.07
2023-05-08T00:34:01.201Z,13.00
2023-05-08T00:36:27.594Z,15.55
2023-05-08T00:38:54.057Z,14.40
2023-05-08T00:41:20.439Z,13.85
2023-05-08T00:43:46.797Z,13.83
2023-05-08T00:46:13.734Z,17.23
2023-05-08T00:48:40.880Z,16.48
2023-05-08T00:51:09.292Z,17.02
2023-05-08T00:53:38.710Z,16.30
2023-05-08T00:56:06.663Z,14.83
2023-05-08T00:58:33.576Z,15.57
2023-05-08T01:01:00.843Z,15.15
2023-05-08T01:03:28.680Z,14.98
2023-05-08T01:05:55.150Z,16.90
2023-05-08T01:08:22.149Z,16.53
2023-05-08T01:11:03.778Z,15.30
2023-05-08T01:13:50.216Z,16.63
2023-05-08T01:16:58.531Z,18.33
2023-05-08T01:19:58.128Z,18.08
2023-05-08T01:22:51.173Z,18.23
2023-05-08T01:25:43.977Z,15.52
2023-05-08T01:28:32.287Z,16.15
2023-05-08T01:31:07.636Z,16.52
2023-05-08T01:33:41.269Z,14.63
2023-05-08T01:36:36.035Z,16.07
2023-05-08T01:39:17.448Z,16.85
2023-05-08T01:41:54.311Z,21.73
2023-05-08T01:44:24.566Z,18.38
2023-05-08T01:46:51.651Z,16.60
2023-05-08T01:49:26.309Z,18.83
2023-05-08T01:52:00.551Z,16.30
2023-05-08T01:54:30.400Z,18.73
2023-05-08T01:56:59.965Z,20.67
2023-05-08T01:59:28.292Z,19.05
2023-05-08T02:01:58.516Z,21.00
2023-05-08T02:04:27.296Z,20.05
2023-05-08T02:06:55.973Z,21.67
2023-05-08T02:09:23.845Z,19.08
2023-05-08T02:11:53.064Z,24.05
2023-05-08T02:14:21.075Z,19.57
2023-05-08T02:16:49.751Z,19.15
2023-05-08T02:19:18.147Z,19.05
2023-05-08T02:21:46.362Z,17.90
2023-05-08T02:24:14.147Z,22.60
2023-05-08T02:26:43.981Z,18.80
2023-05-08T02:29:10.803Z,18.85
2023-05-08T02:31:38.874Z,19.60
2023-05-08T02:34:08.946Z,21.05
2023-05-08T02:36:36.534Z,18.83
2023-05-08T02:39:03.147Z,21.13
2023-05-08T02:41:32.382Z,20.50
2023-05-08T02:43:59.139Z,21.25
2023-05-08T02:46:49.358Z,18.15
2023-05-08T02:49:43.163Z,18.73
2023-05-08T02:52:30.863Z,20.90
2023-05-08T02:55:01.661Z,22.30
2023-05-08T02:57:50.874Z,20.95
2023-05-08T03:00:31.314Z,19.33
2023-05-08T03:03:03.747Z,22.80
2023-05-08T03:05:33.005Z,19.53
2023-05-08T03:08:08.543Z,19.45
2023-05-08T03:10:36.916Z,22.40
2023-05-08T03:13:05.852Z,21.15
2023-05-08T03:15:41.878Z,23.10
2023-05-08T03:18:12.420Z,21.70
2023-05-08T03:20:41.808Z,21.20
2023-05-08T03:23:10.691Z,23.48
2023-05-08T03:25:39.714Z,20.08
2023-05-08T03:28:06.426Z,19.08
2023-05-08T03:30:36.888Z,20.17
2023-05-08T03:33:07.978Z,19.52
2023-05-08T03:35:38.529Z,21.55
2023-05-08T03:38:06.614Z,16.08
2023-05-08T03:40:38.606Z,22.83
2023-05-08T03:43:09.109Z,23.17
2023-05-08T03:45:40.495Z,18.92
2023-05-08T03:48:08.469Z,19.90
2023-05-08T03:50:37.248Z,21.00
2023-05-08T03:53:04.401Z,22.83
2023-05-08T03:55:31.967Z,18.83
2023-05-08T03:58:13.975Z,19.73
2023-05-08T04:01:05.655Z,18.50
2023-05-08T04:03:55.426Z,20.02
2023-05-08T04:06:50.023Z,20.83
2023-05-08T04:09:38.602Z,19.30
2023-05-08T04:12:26.158Z,20.15
2023-05-08T04:15:10.197Z,19.08
2023-05-08T04:17:49.732Z,19.73
2023-05-08T04:20:21.528Z,18.40
2023-05-08T04:22:50.438Z,19.33
2023-05-08T04:25:18.470Z,20.50
2023-05-08T04:27:45.629Z,21.73
2023-05-08T04:30:12.816Z,19.95
2023-05-08T04:32:41.370Z,23.17
2023-05-08T04:35:09.478Z,18.77
2023-05-08T04:37:35.931Z,18.17
2023-05-08T04:40:04.166Z,17.67
2023-05-08T04:42:30.765Z,17.13
2023-05-08T04:44:57.143Z,19.88
2023-05-08T04:47:24.225Z,20.63
2023-05-08T04:49:51.173Z,17.77
2023-05-08T04:52:17.607Z,19.30
2023-05-08T04:54:43.952Z,16.77
2023-05-08T04:57:10.549Z,17.63
2023-05-08T04:59:36.982Z,16.50
2023-05-08T05:02:03.605Z,17.67
2023-05-08T05:04:30.045Z,16.98
2023-05-08T05:06:56.404Z,19.38
2023-05-08T05:09:22.855Z,20.58
2023-05-08T05:11:49.224Z,19.57
2023-05-08T05:14:15.590Z,18.83
2023-05-08T05:16:41.982Z,19.33
2023-05-08T05:19:08.430Z,17.38
2023-05-08T05:21:34.784Z,17.75
2023-05-08T05:24:01.125Z,17.17
2023-05-08T05:26:27.469Z,16.83
2023-05-08T05:28:53.812Z,20.05
2023-05-08T05:31:20.215Z,19.45
2023-05-08T05:33:46.727Z,18.48
2023-05-08T05:36:13.108Z,18.33
2023-05-08T05:38:39.454Z,18.92
2023-05-08T05:41:05.830Z,18.30
2023-05-08T05:43:33.017Z,16.40
2023-05-08T05:46:09.428Z,22.25
2023-05-08T05:48:36.237Z,22.60
2023-05-08T05:51:02.714Z,16.75
2023-05-08T05:53:29.141Z,19.60
2023-05-08T05:55:55.494Z,20.70
2023-05-08T05:58:22.017Z,17.70
2023-05-08T06:00:48.378Z,18.77
2023-05-08T06:03:14.830Z,17.95
2023-05-08T06:05:41.292Z,20.63
2023-05-08T06:08:08.452Z,19.60
2023-05-08T06:10:35.193Z,22.20
2023-05-08T06:13:01.648Z,20.50
2023-05-08T06:15:28.071Z,20.60
2023-05-08T06:17:54.688Z,20.92
2023-05-08T06:20:21.409Z,22.02
2023-05-08T06:22:47.792Z,19.20
2023-05-08T06:25:14.321Z,21.10
2023-05-08T06:27:40.922Z,19.50
2023-05-08T06:30:08.523Z,23.77
2023-05-08T06:32:34.931Z,20.65
2023-05-08T06:35:01.567Z,19.70
2023-05-08T06:37:27.963Z,19.10
2023-05-08T06:40:03.826Z,18.17
2023-05-08T06:42:37.066Z,17.17
2023-05-08T06:45:04.274Z,18.08
2023-05-08T06:47:30.799Z,18.42
2023-05-08T06:49:57.179Z,17.87
2023-05-08T06:52:25.467Z,18.02
2023-05-08T06:54:52.010Z,17.73
2023-05-08T06:57:18.354Z,20.02
2023-05-08T06:59:44.737Z,19.42
2023-05-08T07:02:11.509Z,18.77
2023-05-08T07:04:38.045Z,20.00
2023-05-08T07:07:06.712Z,18.92
2023-05-08T07:09:33.192Z,19.25
2023-05-08T07:11:59.548Z,19.90
2023-05-08T07:14:25.895Z,18.40
2023-05-08T07:16:52.226Z,18.27
2023-05-08T07:19:19.889Z,17.50
2023-05-08T07:21:48.171Z,20.15
2023-05-08T07:24:14.656Z,20.33
2023-05-08T07:26:41.031Z,15.93
2023-05-08T07:29:08.132Z,17.52
2023-05-08T07:31:34.624Z,16.45
2023-05-08T07:34:01.038Z,15.70
2023-05-08T07:36:27.394Z,14.50
2023-05-08T07:38:53.764Z,14.50
2023-05-08T07:41:20.205Z,13.80
2023-05-08T07:43:47.007Z,14.23
2023-05-08T07:46:17.861Z,14.23
2023-05-08T07:48:44.264Z,12.85
2023-05-08T07:51:11.348Z,10.90
2023-05-08T07:53:37.720Z,12.02
2023-05-08T07:56:04.386Z,11.77
2023-05-08T07:58:30.813Z,12.27
2023-05-08T08:00:57.408Z,12.57
2023-05-08T08:03:23.891Z,12.40
2023-05-08T08:05:50.297Z,12.50
2023-05-08T08:08:16.682Z,11.68
2023-05-08T08:10:43.137Z,11.25
2023-05-08T08:13:09.536Z,10.95
2023-05-08T08:15:36.128Z,11.43
2023-05-08T08:18:02.518Z,12.23
2023-05-08T08:20:29.326Z,11.65
2023-05-08T08:22:55.704Z,13.95
2023-05-08T08:25:22.399Z,12.57
2023-05-08T08:27:48.771Z,10.67
2023-05-08T08:30:17.932Z,12.73
2023-05-08T08:32:45.748Z,13.63
2023-05-08T08:35:13.306Z,10.55
2023-05-08T08:37:39.962Z,10.43
2023-05-08T08:40:07.174Z,11.20
2023-05-08T08:42:33.922Z,10.50
2023-05-08T08:45:01.343Z,12.23
2023-05-08T08:47:29.817Z,11.73
2023-05-08T08:50:02.131Z,11.20
2023-05-08T08:52:48.941Z,10.97
2023-05-08T08:55:18.051Z,12.00
2023-05-08T08:58:14.961Z,13.38
2023-05-08T09:00:41.902Z,13.60
2023-05-08T09:03:08.490Z,14.10
2023-05-08T09:05:35.486Z,13.40
2023-05-08T09:08:02.537Z,12.45
2023-05-08T09:10:29.076Z,12.98
2023-05-08T09:12:55.550Z,11.57
2023-05-08T09:15:22.178Z,12.93
2023-05-08T09:17:48.562Z,13.43
2023-05-08T09:20:16.292Z,13.88
2023-05-08T09:22:43.532Z,12.65
2023-05-08T09:25:10.311Z,12.93
2023-05-08T09:27:36.837Z,11.98
2023-05-08T09:30:08.373Z,12.77
2023-05-08T09:32:37.108Z,13.90
2023-05-08T09:35:04.692Z,14.65
2023-05-08T09:37:31.300Z,14.55
2023-05-08T09:40:24.820Z,16.20
2023-05-08T09:42:51.243Z,15.13
2023-05-08T09:45:31.556Z,14.82
2023-05-08T09:47:58.753Z,15.25
2023-05-08T09:50:25.637Z,13.43
2023-05-08T09:52:52.014Z,15.30
2023-05-08T09:55:18.765Z,15.97
2023-05-08T09:57:59.174Z,14.95
2023-05-08T10:00:29.337Z,15.93
2023-05-08T10:02:55.953Z,13.20
2023-05-08T10:05:23.727Z,12.90
2023-05-08T10:07:50.318Z,13.93
2023-05-08T10:10:26.545Z,14.75
2023-05-08T10:12:54.487Z,12.77
2023-05-08T10:15:25.975Z,13.38
2023-05-08T10:18:05.615Z,12.38
2023-05-08T10:20:33.108Z,12.10
2023-05-08T10:23:00.966Z,12.30
2023-05-08T10:25:32.884Z,13.20
2023-05-08T10:28:22.466Z,13.73
2023-05-08T10:30:50.061Z,13.50
2023-05-08T10:33:21.328Z,12.07
2023-05-08T10:35:48.191Z,13.98
2023-05-08T10:38:16.429Z,13.32
2023-05-08T10:40:43.390Z,14.45
2023-05-08T10:43:10.098Z,13.57
2023-05-08T10:45:37.523Z,13.63
2023-05-08T10:48:19.831Z,13.02
2023-05-08T10:50:56.514Z,14.55
2023-05-08T10:53:31.714Z,17.48
2023-05-08T10:55:58.312Z,13.90
2023-05-08T10:58:36.247Z,14.20
2023-05-08T11:01:08.675Z,14.55
2023-05-08T11:03:50.659Z,13.40
2023-05-08T11:06:36.457Z,13.50
2023-05-08T11:09:03.760Z,15.05
2023-05-08T11:11:33.419Z,15.13
2023-05-08T11:14:12.392Z,15.32
2023-05-08T11:16:53.764Z,13.40
2023-05-08T11:19:22.332Z,13.02
2023-05-08T11:22:10.537Z,14.65
2023-05-08T11:24:38.344Z,16.27
2023-05-08T11:27:05.068Z,15.65
2023-05-08T11:29:31.609Z,16.33
2023-05-08T11:31:58.140Z,15.20
2023-05-08T11:34:43.400Z,15.77
2023-05-08T11:37:24.443Z,16.20
2023-05-08T11:39:50.981Z,15.48
2023-05-08T11:42:29.446Z,14.23
2023-05-08T11:45:14.341Z,15.38
2023-05-08T11:47:45.093Z,14.73
2023-05-08T11:50:13.176Z,15.80
2023-05-08T11:52:41.471Z,15.38
2023-05-08T11:55:09.972Z,15.68
2023-05-08T11:57:36.677Z,15.57
2023-05-08T12:00:10.972Z,14.65
2023-05-08T12:02:39.712Z,16.23
2023-05-08T12:05:10.612Z,16.15
2023-05-08T12:07:44.724Z,13.80
2023-05-08T12:10:11.358Z,14.20
2023-05-08T12:12:41.988Z,14.38
2023-05-08T12:15:13.678Z,14.27
2023-05-08T12:17:40.871Z,14.90
2023-05-08T12:20:18.084Z,13.32
2023-05-08T12:22:52.380Z,14.20
2023-05-08T12:25:19.941Z,15.82
2023-05-08T12:27:46.647Z,14.27
2023-05-08T12:30:14.788Z,13.68
2023-05-08T12:32:42.339Z,14.02
2023-05-08T12:35:09.921Z,15.52
2023-05-08T12:37:36.724Z,15.73
2023-05-08T12:40:04.651Z,14.47
2023-05-08T12:42:44.487Z,16.55
2023-05-08T12:45:20.363Z,14.23
2023-05-08T12:47:51.322Z,15.73
2023-05-08T12:50:21.111Z,15.48
2023-05-08T12:52:49.896Z,14.13
2023-05-08T12:55:29.101Z,14.50
2023-05-08T12:58:05.793Z,13.77
2023-05-08T13:00:40.068Z,14.32
2023-05-08T13:03:08.209Z,15.68
2023-05-08T13:05:36.900Z,14.90
2023-05-08T13:08:10.768Z,15.20
2023-05-08T13:10:50.912Z,15.55
2023-05-08T13:13:19.155Z,13.88
2023-05-08T13:15:46.472Z,15.95
2023-05-08T13:18:13.362Z,13.43
2023-05-08T13:20:40.436Z,15.35
2023-05-08T13:23:07.682Z,13.13
2023-05-08T13:25:36.041Z,15.07
2023-05-08T13:28:02.571Z,14.30
2023-05-08T13:30:29.195Z,13.27
2023-05-08T13:32:56.196Z,14.02
2023-05-08T13:35:23.267Z,13.52
2023-05-08T13:37:49.840Z,14.48
2023-05-08T13:40:17.749Z,12.63
2023-05-08T13:42:44.179Z,16.53
2023-05-08T13:45:13.288Z,15.48
2023-05-08T13:47:41.580Z,12.55
2023-05-08T13:50:12.709Z,12.88
2023-05-08T13:52:39.985Z,13.10
2023-05-08T13:55:11.371Z,12.07
2023-05-08T13:57:38.678Z,13.63
2023-05-08T14:00:06.538Z,13.18
2023-05-08T14:02:33.267Z,13.60
2023-05-08T14:04:59.799Z,11.77
2023-05-08T14:07:26.200Z,12.87
2023-05-08T14:09:53.262Z,12.85
2023-05-08T14:12:19.742Z,14.02
2023-05-08T14:14:46.179Z,12.68
2023-05-08T14:17:12.610Z,12.18
2023-05-08T14:19:39.031Z,11.47
2023-05-08T14:22:06.846Z,12.02
2023-05-08T14:24:34.093Z,13.20
2023-05-08T14:27:01.944Z,11.80
2023-05-08T14:29:28.295Z,13.23
2023-05-08T14:31:54.832Z,12.70
2023-05-08T14:34:21.434Z,14.18
2023-05-08T14:36:47.781Z,14.43
2023-05-08T14:39:14.229Z,14.77
2023-05-08T14:41:40.665Z,16.73
2023-05-08T14:44:07.028Z,14.27
2023-05-08T14:46:33.523Z,14.63
2023-05-08T14:48:59.921Z,13.45
2023-05-08T14:51:26.694Z,14.73
2023-05-08T14:53:53.211Z,16.23
2023-05-08T14:56:24.175Z,17.00
2023-05-08T14:58:51.287Z,15.88
2023-05-08T15:01:18.367Z,15.93
2023-05-08T15:03:47.331Z,18.90
2023-05-08T15:06:13.937Z,14.40
2023-05-08T15:08:40.323Z,15.80
2023-05-08T15:11:06.697Z,16.77
2023-05-08T15:13:33.089Z,15.80
2023-05-08T15:15:59.518Z,15.88
2023-05-08T15:18:28.391Z,15.27
2023-05-08T15:20:54.871Z,16.27
2023-05-08T15:23:21.371Z,13.88
2023-05-08T15:25:49.503Z,14.07
2023-05-08T15:28:15.873Z,15.02
2023-05-08T15:30:45.566Z,13.30
2023-05-08T15:33:12.004Z,12.57
2023-05-08T15:35:38.369Z,14.50
2023-05-08T15:38:07.114Z,14.55
2023-05-08T15:40:34.239Z,15.15
2023-05-08T15:43:01.015Z,14.65
2023-05-08T15:45:27.388Z,14.20
2023-05-08T15:47:53.783Z,14.43
2023-05-08T15:50:20.248Z,11.43
2023-05-08T15:52:46.598Z,12.98
2023-05-08T15:55:13.484Z,13.38
2023-05-08T15:57:40.004Z,13.00
2023-05-08T16:00:07.247Z,11.93
2023-05-08T16:02:33.694Z,19.48
2023-05-08T16:05:00.228Z,14.02
2023-05-08T16:07:26.615Z,14.82
2023-05-08T16:09:52.972Z,15.23
2023-05-08T16:12:19.768Z,15.77
2023-05-08T16:14:46.353Z,13.68
2023-05-08T16:17:12.951Z,18.10
2023-05-08T16:19:39.746Z,16.92
2023-05-08T16:22:06.860Z,14.73
2023-05-08T16:24:33.407Z,16.75
2023-05-08T16:26:59.785Z,15.65
2023-05-08T16:29:26.140Z,15.82
2023-05-08T16:31:52.485Z,18.98
2023-05-08T16:34:18.877Z,17.40
2023-05-08T16:36:45.570Z,16.40
2023-05-08T16:39:12.200Z,15.13
2023-05-08T16:41:38.604Z,19.35
2023-05-08T16:44:04.964Z,16.65
2023-05-08T16:46:31.394Z,15.10
2023-05-08T16:48:57.866Z,17.13
2023-05-08T16:51:24.252Z,16.35
2023-05-08T16:53:50.641Z,15.88
2023-05-08T16:56:17.078Z,15.85
2023-05-08T16:58:43.471Z,14.57
2023-05-08T17:01:11.503Z,12.63
2023-05-08T17:03:38.035Z,15.45
2023-05-08T17:06:07.977Z,16.85
2023-05-08T17:08:34.701Z,17.40
2023-05-08T17:11:01.107Z,18.23
2023-05-08T17:13:27.610Z,16.92
2023-05-08T17:15:54.004Z,17.88
2023-05-08T17:18:20.702Z,15.90
2023-05-08T17:20:47.103Z,17.55
2023-05-08T17:23:13.483Z,16.77
2023-05-08T17:25:39.861Z,17.30
2023-05-08T17:28:06.224Z,14.60
2023-05-08T17:30:32.618Z,15.10
2023-05-08T17:32:59.082Z,13.93
2023-05-08T17:35:25.551Z,14.07
2023-05-08T17:37:51.911Z,12.63
2023-05-08T17:40:18.291Z,13.18
2023-05-08T17:42:44.645Z,12.23
2023-05-08T17:45:11.401Z,10.18
2023-05-08T17:47:38.253Z,13.00
2023-05-08T17:50:06.365Z,9.82
2023-05-08T17:52:34.455Z,9.80
2023-05-08T17:55:00.956Z,9.38
2023-05-08T17:57:27.329Z,9.20
2023-05-08T17:59:53.636Z,8.13
2023-05-08T18:02:20.044Z,8.05
2023-05-08T18:04:46.427Z,6.97
2023-05-08T18:07:12.866Z,9.35
2023-05-08T18:09:39.256Z,6.43
2023-05-08T18:12:06.211Z,7.07
2023-05-08T18:14:33.039Z,6.60
2023-05-08T18:16:59.832Z,7.25
2023-05-08T18:19:26.452Z,5.95
2023-05-08T18:21:52.986Z,6.70
2023-05-08T18:24:19.351Z,6.23
2023-05-08T18:26:51.184Z,5.93
2023-05-08T18:29:18.786Z,6.78
2023-05-08T18:31:45.225Z,7.22
2023-05-08T18:34:11.589Z,6.57
2023-05-08T18:36:37.956Z,7.73
2023-05-08T18:39:04.348Z,6.28
2023-05-08T18:41:30.762Z,9.20
2023-05-08T18:43:57.141Z,7.35
2023-05-08T18:46:24.619Z,7.60
2023-05-08T18:48:51.018Z,9.63
2023-05-08T18:51:17.489Z,9.45
2023-05-08T18:53:43.925Z,6.70
2023-05-08T18:56:11.453Z,9.40
2023-05-08T18:58:38.067Z,8.07
2023-05-08T19:01:06.102Z,10.10
2023-05-08T19:03:32.934Z,9.90
2023-05-08T19:05:59.336Z,11.38
2023-05-08T19:08:25.762Z,11.45
2023-05-08T19:10:53.219Z,9.73
2023-05-08T19:13:19.677Z,11.57
2023-05-08T19:15:46.183Z,10.80
2023-05-08T19:18:14.026Z,10.93
2023-05-08T19:20:40.397Z,11.65
2023-05-08T19:23:06.799Z,12.45
2023-05-08T19:25:33.145Z,12.00
2023-05-08T19:27:59.596Z,12.88
2023-05-08T19:30:25.941Z,11.05
2023-05-08T19:32:52.370Z,13.15
2023-05-08T19:35:18.729Z,13.05
2023-05-08T19:37:45.213Z,11.37
2023-05-08T19:40:12.153Z,13.70
2023-05-08T19:42:38.666Z,15.73
2023-05-08T19:45:05.448Z,16.90
2023-05-08T19:47:31.854Z,14.40
2023-05-08T19:49:58.307Z,17.23
2023-05-08T19:52:24.659Z,18.15
2023-05-08T19:54:51.066Z,18.08
2023-05-08T19:57:17.447Z,15.10
2023-05-08T19:59:43.922Z,16.15
2023-05-08T20:02:10.358Z,15.63
2023-05-08T20:04:48.694Z,15.18
2023-05-08T20:07:23.048Z,15.05
2023-05-08T20:09:49.402Z,14.95
2023-05-08T20:12:15.793Z,15.95
2023-05-08T20:14:42.188Z,15.77
2023-05-08T20:17:08.570Z,19.08
2023-05-08T20:19:35.337Z,20.50
2023-05-08T20:22:01.897Z,19.73
2023-05-08T20:24:28.309Z,21.20
2023-05-08T20:26:56.184Z,22.63
2023-05-08T20:29:24.042Z,18.17
2023-05-08T20:31:51.662Z,23.02
2023-05-08T20:34:21.110Z,19.55
2023-05-08T20:36:48.548Z,23.30
2023-05-08T20:39:15.190Z,20.23
2023-05-08T20:41:41.767Z,20.98
2023-05-08T20:44:08.158Z,20.83
2023-05-08T20:46:34.527Z,20.95
2023-05-08T20:49:03.663Z,22.77
2023-05-08T20:51:31.728Z,17.03
2023-05-08T20:53:58.099Z,20.23
2023-05-08T20:56:24.507Z,18.92
2023-05-08T20:58:50.861Z,19.33
2023-05-08T21:01:19.818Z,18.60
2023-05-08T21:03:47.378Z,22.97
2023-05-08T21:06:13.760Z,21.00
2023-05-08T21:08:40.096Z,22.17
2023-05-08T21:11:06.452Z,20.48
2023-05-08T21:13:32.887Z,20.80
2023-05-08T21:15:59.337Z,22.67
2023-05-08T21:18:25.752Z,22.45
2023-05-08T21:20:52.146Z,23.63
2023-05-08T21:23:20.351Z,18.85
2023-05-08T21:25:47.365Z,22.77
2023-05-08T21:28:15.085Z,22.30
2023-05-08T21:30:42.226Z,21.30
2023-05-08T21:33:10.210Z,22.60
2023-05-08T21:35:36.564Z,23.83
2023-05-08T21:38:03.015Z,20.05
2023-05-08T21:40:29.376Z,21.07
2023-05-08T21:42:55.751Z,18.13
2023-05-08T21:45:22.269Z,21.55
2023-05-08T21:47:48.781Z,21.17
2023-05-08T21:50:15.225Z,17.73
2023-05-08T21:52:41.582Z,21.50
2023-05-08T21:55:08.626Z,20.67
2023-05-08T21:57:35.912Z,20.20
2023-05-08T22:00:02.614Z,22.65
2023-05-08T22:02:29.075Z,21.58
2023-05-08T22:04:55.520Z,21.93
2023-05-08T22:07:21.920Z,23.25
2023-05-08T22:09:48.278Z,22.48
2023-05-08T22:12:14.803Z,22.65
2023-05-08T22:14:41.199Z,22.60
2023-05-08T22:17:07.545Z,24.23
2023-05-08T22:19:33.894Z,22.92
2023-05-08T22:22:00.235Z,22.77
2023-05-08T22:24:26.714Z,22.95
2023-05-08T22:26:53.151Z,23.45
2023-05-08T22:29:19.514Z,20.17
2023-05-08T22:31:47.375Z,21.15
2023-05-08T22:34:13.946Z,23.90
2023-05-08T22:36:40.321Z,20.42
2023-05-08T22:39:07.494Z,23.17
2023-05-08T22:41:34.173Z,23.03
2023-05-08T22:44:00.645Z,21.55
2023-05-08T22:46:27.501Z,26.67
2023-05-08T22:48:54.049Z,26.38
2023-05-08T22:51:20.562Z,25.33
2023-05-08T22:53:47.272Z,23.10
2023-05-08T22:56:13.649Z,22.95
2023-05-08T22:58:40.059Z,22.35
2023-05-08T23:01:06.491Z,22.50
2023-05-08T23:03:32.927Z,20.77
2023-05-08T23:05:59.272Z,22.17
2023-05-08T23:08:25.689Z,18.98
2023-05-08T23:10:52.062Z,23.42
2023-05-08T23:13:18.534Z,21.80
2023-05-08T23:15:44.969Z,24.67
2023-05-08T23:18:11.373Z,21.57
2023-05-08T23:20:37.779Z,19.00
2023-05-08T23:23:04.159Z,23.38
2023-05-08T23:25:30.528Z,22.83
2023-05-08T23:27:56.986Z,22.75
2023-05-08T23:30:23.391Z,22.20
2023-05-08T23:32:49.765Z,22.27
2023-05-08T23:35:16.332Z,20.30
2023-05-08T23:37:42.861Z,20.77
2023-05-08T23:40:09.824Z,21.95
2023-05-08T23:42:37.114Z,22.10
2023-05-08T23:45:03.784Z,23.40
2023-05-08T23:47:30.178Z,23.90
2023-05-08T23:49:56.607Z,22.90
2023-05-08T23:52:23.238Z,19.00
2023-05-08T23:54:49.622Z,21.37
2023-05-08T23:57:15.975Z,24.73
2023-05-08T23:59:42.345Z,22.77
